ESST

Torsby Airport

Sweden
METAR ESST 191650Z AUTO 21005KT 9999 NCD 19/08 Q1010
Observed Flight Rules
Aug-19 @ 16:50 UTC (23 minutes ago) Visual Flight Rules
Wind Visibility Clouds
210° at 5 knots 10,000+ meters
  • Clear skies
Temperatures Readings
Current 19°C / 66°F
Dewpoint 8°C / 46°F
Humidity 49%
Altimeter 29.82" Hg
Pressure 1010 hPa
Elevation 120
METAR ESST 191650Z AUTO 21005KT 9999 NCD 19/08 Q1010
Observed Flight Rules
Aug-19 @ 16:50 UTC
(23 minutes ago)
VFR
Wind Visibility
210° at 5 knots 10,000+ meters
Clouds
  • Clear skies
Temperature Dewpoint
19°C / 66°F 8°C / 46°F
Humidity Altimeter Pressure
49% 29.82" Hg 1010 hPa